Time;durP1;ratioP1;P1;durP2;ratioP2;P2;SDS_P1;SDS_P2;PMS_P1;PMS_P2;Temp;Humidity;BMP_temperature;BMP_pressure;BME280_temperature;BME280_humidity;BME280_pressure;Samples;Min_cycle;Max_cycle;Signal;HPM_P1;HPM_P2
2021/04/02 00:02:22;;;;;;;4.47;1.50;;;4.20;99.90;;;;;;4939352;29;20665;-79
2021/04/02 00:04:48;;;;;;;3.97;1.40;;;4.20;99.90;;;;;;4939617;29;20209;-80
2021/04/02 00:07:14;;;;;;;5.53;1.80;;;4.00;99.90;;;;;;4939339;29;20213;-80
2021/04/02 00:09:39;;;;;;;4.93;2.00;;;3.90;99.90;;;;;;4939004;29;20293;-80
2021/04/02 00:12:05;;;;;;;4.87;1.67;;;3.90;99.90;;;;;;4939176;29;20633;-79
2021/04/02 00:14:31;;;;;;;5.03;1.80;;;4.00;99.90;;;;;;4939233;29;20233;-79
2021/04/02 00:16:56;;;;;;;6.33;1.73;;;3.90;99.90;;;;;;4939430;29;20175;-80
2021/04/02 00:19:22;;;;;;;6.37;1.90;;;3.90;99.90;;;;;;4939001;29;20669;-80
2021/04/02 00:21:47;;;;;;;7.50;2.10;;;3.90;99.90;;;;;;4939089;29;20179;-80
2021/04/02 00:24:13;;;;;;;6.40;2.20;;;3.90;99.90;;;;;;4939254;29;20210;-79
2021/04/02 00:26:39;;;;;;;5.43;1.50;;;3.80;99.90;;;;;;4938990;29;20179;-79
2021/04/02 00:29:04;;;;;;;8.53;1.93;;;3.80;99.90;;;;;;4938723;29;20203;-80
2021/04/02 00:31:30;;;;;;;4.40;1.50;;;3.70;99.90;;;;;;4939108;29;20241;-80
2021/04/02 00:33:56;;;;;;;8.27;1.80;;;3.60;99.90;;;;;;4956015;28;20265;-80
2021/04/02 00:36:21;;;;;;;4.97;1.80;;;3.70;99.90;;;;;;4939042;29;20657;-79
2021/04/02 00:38:47;;;;;;;5.77;1.77;;;3.50;99.90;;;;;;4938642;29;20556;-79
2021/04/02 00:41:15;;;;;;;7.47;1.97;;;3.50;99.90;;;;;;4938504;29;20182;-79
2021/04/02 00:43:47;;;;;;;4.30;1.50;;;3.50;99.90;;;;;;4938641;29;20190;-79
2021/04/02 00:46:14;;;;;;;5.87;1.97;;;3.50;99.90;;;;;;4955848;29;20283;-79
2021/04/02 00:48:42;;;;;;;10.90;2.17;;;3.50;99.90;;;;;;4938380;29;20225;-79
2021/04/02 00:51:10;;;;;;;6.53;1.70;;;3.50;99.90;;;;;;4938355;29;20575;-79
2021/04/02 00:53:43;;;;;;;5.67;1.97;;;3.50;99.90;;;;;;4938155;29;20712;-79
2021/04/02 00:56:10;;;;;;;10.63;1.97;;;3.40;99.90;;;;;;4938419;29;20183;-79
2021/04/02 00:58:37;;;;;;;5.60;1.67;;;3.50;99.90;;;;;;4938222;29;20261;-79
2021/04/02 01:01:05;;;;;;;7.27;1.67;;;3.60;99.90;;;;;;4938416;29;20606;-80
2021/04/02 01:03:30;;;;;;;8.43;2.40;;;3.50;99.90;;;;;;4938432;29;20187;-80
2021/04/02 01:05:59;;;;;;;11.07;2.87;;;3.60;99.90;;;;;;4938331;29;20241;-79
2021/04/02 01:08:28;;;;;;;9.77;2.93;;;3.60;99.90;;;;;;4937985;29;20190;-79
2021/04/02 01:10:55;;;;;;;9.17;1.87;;;3.70;99.90;;;;;;4937959;29;20203;-79
2021/04/02 01:13:24;;;;;;;7.40;2.30;;;3.60;99.90;;;;;;4937740;29;20194;-81
2021/04/02 01:16:02;;;;;;;9.67;2.33;;;3.60;99.90;;;;;;4938135;29;20425;-79
2021/04/02 01:18:32;;;;;;;8.53;1.90;;;3.50;99.90;;;;;;4937741;29;20278;-80
2021/04/02 01:21:03;;;;;;;8.80;1.60;;;3.40;99.90;;;;;;4937796;29;20242;-80
2021/04/02 01:23:34;;;;;;;9.57;2.33;;;3.40;99.90;;;;;;4938035;29;20269;-80
2021/04/02 01:26:24;;;;;;;9.20;2.33;;;3.40;99.90;;;;;;4937853;29;20190;-80
2021/04/02 01:29:00;;;;;;;11.27;3.07;;;3.50;99.90;;;;;;4937646;29;20202;-80
2021/04/02 01:31:27;;;;;;;12.03;3.13;;;3.50;99.90;;;;;;4937590;29;20217;-79
2021/04/02 01:33:55;;;;;;;15.40;3.50;;;3.60;99.90;;;;;;4937842;29;20229;-80
2021/04/02 01:36:22;;;;;;;11.20;3.60;;;3.50;99.90;;;;;;4954779;29;20191;-79
2021/04/02 01:38:48;;;;;;;13.33;2.83;;;3.60;99.90;;;;;;4937494;29;20203;-80
2021/04/02 01:41:15;;;;;;;11.63;3.70;;;3.60;99.90;;;;;;4937566;29;20187;-80
2021/04/02 01:43:51;;;;;;;12.50;2.73;;;3.60;99.90;;;;;;4937565;29;20186;-80
2021/04/02 01:46:17;;;;;;;8.87;1.90;;;3.60;99.90;;;;;;4937739;29;20227;-79
2021/04/02 01:48:45;;;;;;;8.97;1.90;;;3.60;99.90;;;;;;4937244;29;20211;-79
2021/04/02 01:51:13;;;;;;;8.37;2.10;;;3.50;99.90;;;;;;4937200;29;20210;-80
2021/04/02 01:53:44;;;;;;;9.33;1.80;;;3.60;99.90;;;;;;4937417;29;20175;-79
2021/04/02 01:56:10;;;;;;;9.93;1.93;;;3.60;99.90;;;;;;4937448;29;20189;-79
2021/04/02 01:58:41;;;;;;;6.60;1.70;;;3.60;99.90;;;;;;4937070;29;20203;-79
2021/04/02 02:01:08;;;;;;;8.20;2.40;;;3.60;99.90;;;;;;4937182;29;20188;-79
2021/04/02 02:03:36;;;;;;;13.70;1.90;;;3.60;99.90;;;;;;4937309;29;20618;-79
2021/04/02 02:06:03;;;;;;;7.33;1.73;;;3.60;99.90;;;;;;4937335;29;20187;-79
2021/04/02 02:08:30;;;;;;;6.43;1.70;;;3.60;99.90;;;;;;4936915;29;20184;-80
2021/04/02 02:11:05;;;;;;;12.43;1.77;;;3.60;99.90;;;;;;4937263;29;20337;-79
2021/04/02 02:13:31;;;;;;;7.00;1.97;;;3.60;99.90;;;;;;4937239;29;20215;-79
2021/04/02 02:15:58;;;;;;;8.77;1.73;;;3.50;99.90;;;;;;4936994;29;20618;-79
2021/04/02 02:18:25;;;;;;;8.47;1.80;;;3.60;99.90;;;;;;4936876;29;20202;-79
2021/04/02 02:20:52;;;;;;;11.20;1.73;;;3.50;99.90;;;;;;4936974;29;20188;-80
2021/04/02 02:23:18;;;;;;;10.10;1.67;;;3.50;99.90;;;;;;4954123;29;20271;-79
2021/04/02 02:25:43;;;;;;;6.43;1.60;;;3.40;99.90;;;;;;4936121;29;20655;-79
2021/04/02 02:28:09;;;;;;;5.97;1.83;;;3.30;99.90;;;;;;4936878;29;20193;-81
2021/04/02 02:30:35;;;;;;;7.33;1.73;;;3.30;99.90;;;;;;4936621;29;20241;-80
2021/04/02 02:33:01;;;;;;;8.60;1.80;;;3.30;99.90;;;;;;4937056;29;20179;-79
2021/04/02 02:35:27;;;;;;;8.67;1.87;;;3.20;99.90;;;;;;4936740;29;20195;-79
2021/04/02 02:37:56;;;;;;;6.70;2.17;;;3.20;99.90;;;;;;4936883;29;20183;-79
2021/04/02 02:40:26;;;;;;;9.83;2.17;;;3.20;99.90;;;;;;4936500;29;20616;-80
2021/04/02 02:42:53;;;;;;;6.40;1.87;;;3.20;99.90;;;;;;4936685;29;20183;-79
2021/04/02 02:45:20;;;;;;;11.60;1.97;;;3.20;99.90;;;;;;4936966;29;20179;-79
2021/04/02 02:47:46;;;;;;;8.97;2.37;;;3.20;99.90;;;;;;4936617;29;20618;-80
2021/04/02 02:50:18;;;;;;;5.40;1.57;;;3.20;99.90;;;;;;4936359;29;20234;-79
2021/04/02 02:52:47;;;;;;;10.33;1.83;;;3.30;99.90;;;;;;4936634;29;20187;-80
2021/04/02 02:55:14;;;;;;;10.27;1.97;;;3.30;99.90;;;;;;4936670;29;20187;-80
2021/04/02 02:57:44;;;;;;;12.77;2.97;;;3.40;99.90;;;;;;4936726;29;20231;-80
2021/04/02 03:00:12;;;;;;;10.83;2.20;;;3.40;99.90;;;;;;4936371;29;20657;-80
2021/04/02 03:02:40;;;;;;;9.63;2.20;;;3.40;99.90;;;;;;4936363;29;20179;-80
2021/04/02 03:05:07;;;;;;;10.97;2.63;;;3.40;99.90;;;;;;4936438;29;20608;-80
2021/04/02 03:07:35;;;;;;;9.67;2.30;;;3.40;99.90;;;;;;4936535;29;20277;-80
2021/04/02 03:10:02;;;;;;;12.37;2.00;;;3.50;99.90;;;;;;4936218;29;20560;-80
2021/04/02 03:12:29;;;;;;;20.07;4.83;;;3.40;99.90;;;;;;4936292;29;20269;-80
2021/04/02 03:14:55;;;;;;;9.30;3.50;;;3.50;99.90;;;;;;4936756;29;20183;-80
2021/04/02 03:17:22;;;;;;;7.80;2.53;;;3.60;99.90;;;;;;4936528;29;20696;-82
2021/04/02 03:19:50;;;;;;;7.50;2.30;;;3.50;99.90;;;;;;4936211;29;20203;-80
2021/04/02 03:22:18;;;;;;;16.07;3.00;;;3.60;99.90;;;;;;4936426;29;20183;-79
2021/04/02 03:24:45;;;;;;;10.70;3.00;;;3.60;99.90;;;;;;4936310;29;20270;-80
2021/04/02 03:27:12;;;;;;;10.87;4.10;;;3.70;99.90;;;;;;4936366;29;20187;-80
2021/04/02 03:29:38;;;;;;;14.07;3.07;;;3.70;99.90;;;;;;4936169;29;20624;-80
2021/04/02 03:32:09;;;;;;;11.73;2.20;;;3.70;99.90;;;;;;4936224;29;20212;-80
2021/04/02 03:34:37;;;;;;;12.93;2.63;;;3.80;99.90;;;;;;4936168;29;20195;-79
2021/04/02 03:37:07;;;;;;;16.17;2.73;;;3.80;99.90;;;;;;4938733;29;20196;-79
2021/04/02 03:39:33;;;;;;;10.90;3.03;;;3.80;99.90;;;;;;4939624;29;20203;-79
2021/04/02 03:42:01;;;;;;;11.83;3.00;;;3.80;99.90;;;;;;4939911;29;20217;-80
2021/04/02 03:44:31;;;;;;;14.10;2.20;;;3.90;99.90;;;;;;4939768;29;20190;-79
2021/04/02 03:47:00;;;;;;;15.63;2.13;;;3.90;99.90;;;;;;4939876;29;20620;-79
2021/04/02 03:49:29;;;;;;;14.30;2.50;;;4.00;99.90;;;;;;4939568;29;20207;-80
2021/04/02 03:51:58;;;;;;;11.87;3.20;;;4.00;99.90;;;;;;4939528;29;20218;-81
2021/04/02 03:54:25;;;;;;;13.07;3.33;;;4.00;99.90;;;;;;4939530;29;20208;-78
2021/04/02 03:56:54;;;;;;;12.93;3.67;;;4.10;99.90;;;;;;4956677;29;20191;-79
2021/04/02 03:59:22;;;;;;;11.13;3.27;;;4.20;99.90;;;;;;4939248;29;20223;-78
2021/04/02 04:01:50;;;;;;;14.97;3.40;;;4.10;99.90;;;;;;4956990;29;20229;-79
2021/04/02 04:04:17;;;;;;;15.40;3.30;;;4.20;99.90;;;;;;4940050;29;20191;-80
2021/04/02 04:06:46;;;;;;;17.43;3.47;;;4.30;99.90;;;;;;4939864;29;20187;-80
2021/04/02 04:09:15;;;;;;;13.67;3.60;;;4.30;99.90;;;;;;4939549;29;20210;-80
2021/04/02 04:11:42;;;;;;;15.33;3.67;;;4.30;99.90;;;;;;4939743;29;20235;-79
2021/04/02 04:14:10;;;;;;;13.53;2.47;;;4.30;99.90;;;;;;4957005;29;20594;-80
2021/04/02 04:16:37;;;;;;;12.73;2.90;;;4.30;99.90;;;;;;4939771;29;20637;-80
2021/04/02 04:19:03;;;;;;;9.47;2.73;;;4.30;99.90;;;;;;4939466;29;20251;-80
2021/04/02 04:21:37;;;;;;;14.87;2.63;;;4.40;99.90;;;;;;4956708;29;20588;-80
2021/04/02 04:24:05;;;;;;;14.27;3.07;;;4.30;99.90;;;;;;4939561;29;20270;-80
2021/04/02 04:26:32;;;;;;;16.53;3.00;;;4.30;99.90;;;;;;4939577;29;20203;-80
2021/04/02 04:28:59;;;;;;;18.23;2.57;;;4.40;99.90;;;;;;4939226;29;20199;-80
2021/04/02 04:31:26;;;;;;;11.47;2.57;;;4.30;99.90;;;;;;4939372;29;20701;-80
2021/04/02 04:33:54;;;;;;;12.50;2.80;;;4.30;99.90;;;;;;4939397;29;20634;-79
2021/04/02 04:36:20;;;;;;;12.53;2.17;;;4.30;99.90;;;;;;4939400;29;20191;-80
2021/04/02 04:38:46;;;;;;;11.67;2.40;;;4.30;99.90;;;;;;4939135;29;20282;-80
2021/04/02 04:41:13;;;;;;;16.30;3.07;;;4.30;99.90;;;;;;4939421;29;20179;-80
2021/04/02 04:43:41;;;;;;;9.00;2.67;;;4.30;99.90;;;;;;4939273;29;20235;-80
2021/04/02 04:46:07;;;;;;;12.40;3.13;;;4.30;99.90;;;;;;4939243;29;20230;-82
2021/04/02 04:48:33;;;;;;;20.37;3.17;;;4.40;99.90;;;;;;4938100;29;20223;-79
2021/04/02 04:50:59;;;;;;;11.13;2.83;;;4.50;99.90;;;;;;4939013;29;20553;-79
2021/04/02 04:53:27;;;;;;;13.27;3.93;;;4.50;99.90;;;;;;4939042;29;20179;-79
2021/04/02 04:55:57;;;;;;;13.87;4.47;;;4.50;99.90;;;;;;4939011;29;20558;-80
2021/04/02 04:58:27;;;;;;;14.17;3.67;;;4.50;99.90;;;;;;4938724;29;20175;-81
2021/04/02 05:00:54;;;;;;;22.90;4.13;;;4.50;99.90;;;;;;4938955;29;20184;-80
2021/04/02 05:03:22;;;;;;;23.43;5.67;;;4.40;99.90;;;;;;4960390;28;20180;-79
2021/04/02 05:05:55;;;;;;;22.77;5.13;;;4.50;99.90;;;;;;4975321;28;20193;-82
2021/04/02 05:08:41;;;;;;;15.20;3.70;;;4.50;99.90;;;;;;4973870;28;20269;-79
2021/04/02 05:11:14;;;;;;;10.70;2.90;;;4.50;99.90;;;;;;4974097;28;20673;-80
2021/04/02 05:13:41;;;;;;;11.60;2.67;;;4.60;99.90;;;;;;4973859;28;20181;-81
2021/04/02 05:16:07;;;;;;;11.80;3.60;;;4.60;99.90;;;;;;4973728;28;20180;-79
2021/04/02 05:18:34;;;;;;;20.70;4.23;;;4.70;99.90;;;;;;4973609;28;20249;-79
2021/04/02 05:20:59;;;;;;;14.83;4.17;;;4.70;99.90;;;;;;4973824;28;20193;-79
2021/04/02 05:23:25;;;;;;;17.13;3.57;;;4.70;99.90;;;;;;4973553;28;20179;-79
2021/04/02 05:25:51;;;;;;;17.43;4.37;;;4.70;99.90;;;;;;4973694;28;20190;-79
2021/04/02 05:28:17;;;;;;;16.23;3.23;;;4.70;99.90;;;;;;4973536;28;20185;-80
2021/04/02 05:30:42;;;;;;;14.40;3.33;;;4.80;99.90;;;;;;4973292;28;20229;-79
2021/04/02 05:33:08;;;;;;;20.17;4.07;;;4.90;99.90;;;;;;4957420;28;20615;-79
2021/04/02 05:35:34;;;;;;;11.57;3.43;;;4.90;99.90;;;;;;4973354;28;20218;-79
2021/04/02 05:38:00;;;;;;;12.40;3.57;;;4.90;99.90;;;;;;4973465;28;20178;-79
2021/04/02 05:40:26;;;;;;;16.57;3.57;;;5.00;99.90;;;;;;4973118;28;20287;-80
2021/04/02 05:43:06;;;;;;;13.73;3.00;;;4.90;99.90;;;;;;4974488;28;20187;-79
2021/04/02 05:45:36;;;;;;;11.67;2.27;;;5.00;99.90;;;;;;4956911;28;20170;-78
2021/04/02 05:48:04;;;;;;;12.43;2.83;;;5.00;99.90;;;;;;4973001;28;20178;-79
2021/04/02 05:50:31;;;;;;;20.13;3.80;;;5.10;99.90;;;;;;4972475;28;20740;-79
2021/04/02 05:53:02;;;;;;;14.37;3.13;;;5.10;99.90;;;;;;4972906;28;20225;-79
2021/04/02 05:55:28;;;;;;;18.13;3.27;;;5.20;99.90;;;;;;4972833;28;20695;-79
2021/04/02 05:57:54;;;;;;;14.30;3.27;;;5.20;99.90;;;;;;4972770;28;20197;-78
2021/04/02 06:00:21;;;;;;;15.30;3.23;;;5.20;99.90;;;;;;4972340;28;20202;-78
2021/04/02 06:02:49;;;;;;;14.83;3.53;;;5.20;99.90;;;;;;4972623;28;20182;-78
2021/04/02 06:05:15;;;;;;;16.87;3.40;;;5.30;99.90;;;;;;4972672;28;20322;-80
2021/04/02 06:07:43;;;;;;;10.23;2.77;;;5.30;99.90;;;;;;4972785;28;20601;-81
2021/04/02 06:10:09;;;;;;;12.10;2.70;;;5.30;99.90;;;;;;4956354;28;20198;-79
2021/04/02 06:12:40;;;;;;;12.77;2.83;;;5.40;99.90;;;;;;4972564;28;20220;-80
2021/04/02 06:15:07;;;;;;;9.40;2.60;;;5.40;99.90;;;;;;4956430;28;20201;-80
2021/04/02 06:17:59;;;;;;;14.90;3.50;;;5.40;99.90;;;;;;4956453;28;20182;-78
2021/04/02 06:20:26;;;;;;;14.07;3.50;;;5.50;99.90;;;;;;4956027;28;20210;-80
2021/04/02 06:23:11;;;;;;;13.00;3.20;;;5.50;99.90;;;;;;4956443;28;20657;-78
2021/04/02 06:25:45;;;;;;;20.53;4.73;;;5.50;99.90;;;;;;4956472;28;20182;-80
2021/04/02 06:28:12;;;;;;;14.13;3.53;;;5.60;99.90;;;;;;4973680;28;20196;-80
2021/04/02 06:30:40;;;;;;;13.17;2.70;;;5.70;99.90;;;;;;4955948;28;20206;-80
2021/04/02 06:33:07;;;;;;;14.17;2.90;;;5.80;99.90;;;;;;4956077;28;20904;-78
2021/04/02 06:35:36;;;;;;;13.70;3.47;;;5.80;99.90;;;;;;4956293;28;20212;-81
2021/04/02 06:38:01;;;;;;;15.17;3.67;;;5.80;99.90;;;;;;4956189;28;20188;-78
2021/04/02 06:40:30;;;;;;;21.30;3.60;;;5.80;99.90;;;;;;4955959;28;20848;-79
2021/04/02 06:42:59;;;;;;;16.20;3.37;;;5.80;99.90;;;;;;4956107;28;20189;-80
2021/04/02 06:45:24;;;;;;;15.60;3.57;;;5.80;99.90;;;;;;4956208;28;20182;-78
2021/04/02 06:47:50;;;;;;;24.67;3.90;;;5.90;99.90;;;;;;4973200;28;20650;-78
2021/04/02 06:50:23;;;;;;;14.67;3.63;;;6.00;99.90;;;;;;4955832;28;20691;-79
2021/04/02 06:52:55;;;;;;;10.47;3.10;;;5.90;99.90;;;;;;4956111;28;20334;-79
2021/04/02 06:55:22;;;;;;;11.70;3.30;;;6.10;99.90;;;;;;4955991;28;20192;-79
2021/04/02 06:57:50;;;;;;;15.17;2.97;;;6.30;99.90;;;;;;4955868;28;20271;-78
2021/04/02 07:00:20;;;;;;;16.90;3.47;;;6.30;99.90;;;;;;4955685;28;20493;-80
2021/04/02 07:02:47;;;;;;;15.83;3.97;;;6.20;99.90;;;;;;4955966;28;20182;-79
2021/04/02 07:05:18;;;;;;;13.00;3.20;;;6.40;99.90;;;;;;4955877;28;20175;-79
2021/04/02 07:07:51;;;;;;;12.50;3.50;;;6.40;99.90;;;;;;4956055;28;20196;-78
2021/04/02 07:10:18;;;;;;;18.60;4.30;;;6.20;99.90;;;;;;4955791;28;20558;-80
2021/04/02 07:12:47;;;;;;;20.10;3.73;;;6.30;99.90;;;;;;4959942;28;20199;-81
2021/04/02 07:15:13;;;;;;;15.40;3.30;;;6.30;99.90;;;;;;4960046;28;20186;-83
2021/04/02 07:17:39;;;;;;;16.60;3.97;;;6.30;99.90;;;;;;4959862;28;20661;-79
2021/04/02 07:20:07;;;;;;;18.43;4.37;;;6.30;99.90;;;;;;4958540;28;20209;-81
2021/04/02 07:22:33;;;;;;;15.37;3.70;;;6.30;99.90;;;;;;4970294;28;20201;-79
2021/04/02 07:24:59;;;;;;;13.07;3.37;;;6.30;99.90;;;;;;4950240;28;20700;-81
2021/04/02 07:27:26;;;;;;;19.53;4.03;;;6.40;99.90;;;;;;4948474;28;20206;-79
2021/04/02 07:29:52;;;;;;;14.73;3.87;;;6.40;99.90;;;;;;4959286;28;20205;-80
2021/04/02 07:32:19;;;;;;;14.20;4.03;;;6.40;99.90;;;;;;4976681;28;20209;-81
2021/04/02 07:34:44;;;;;;;18.73;2.83;;;6.40;99.90;;;;;;4954200;29;20233;-81
2021/04/02 07:37:12;;;;;;;12.43;4.00;;;6.40;99.90;;;;;;4947480;28;20205;-81
2021/04/02 07:39:37;;;;;;;19.60;4.37;;;6.40;99.90;;;;;;4959191;28;20198;-80
2021/04/02 07:42:04;;;;;;;17.17;3.67;;;6.40;99.90;;;;;;4943384;29;20190;-80
2021/04/02 07:44:41;;;;;;;14.73;3.97;;;6.40;99.90;;;;;;4957235;29;20179;-80
2021/04/02 07:47:12;;;;;;;13.70;3.30;;;6.50;99.90;;;;;;4957468;29;20324;-79
2021/04/02 07:49:53;;;;;;;17.30;4.20;;;6.40;99.90;;;;;;4948676;28;20201;-79
2021/04/02 07:52:38;;;;;;;10.23;2.60;;;6.40;99.90;;;;;;4976595;28;20190;-80
2021/04/02 07:55:09;;;;;;;13.63;3.40;;;6.50;99.90;;;;;;4959180;28;20611;-80
2021/04/02 07:57:58;;;;;;;13.47;3.07;;;6.40;99.90;;;;;;4958888;28;20705;-81
2021/04/02 08:00:29;;;;;;;12.13;3.43;;;6.40;99.90;;;;;;4958165;28;20260;-78
2021/04/02 08:03:15;;;;;;;13.20;3.37;;;6.40;99.90;;;;;;4958844;28;20597;-80
2021/04/02 08:06:07;;;;;;;12.77;3.17;;;6.50;99.90;;;;;;4958990;28;20178;-80
2021/04/02 08:08:47;;;;;;;19.83;4.47;;;6.40;99.90;;;;;;4947861;28;20293;-80
2021/04/02 08:11:14;;;;;;;14.23;3.33;;;6.60;99.90;;;;;;4970823;28;20229;-79
2021/04/02 08:13:48;;;;;;;18.43;3.87;;;6.60;99.90;;;;;;4958885;28;20264;-81
2021/04/02 08:16:40;;;;;;;11.43;3.20;;;6.70;99.90;;;;;;4953817;28;20218;-81
2021/04/02 08:19:12;;;;;;;12.20;2.50;;;6.70;99.90;;;;;;4965871;28;20236;-81
2021/04/02 08:21:40;;;;;;;10.93;3.40;;;6.70;99.90;;;;;;4983563;28;20232;-80
2021/04/02 08:24:11;;;;;;;12.80;3.07;;;6.60;99.90;;;;;;4974922;28;20182;-82
2021/04/02 08:26:38;;;;;;;15.87;3.40;;;6.60;99.90;;;;;;4947704;28;20596;-82
2021/04/02 08:29:05;;;;;;;15.83;2.93;;;6.70;99.90;;;;;;4939157;29;20205;-83
2021/04/02 08:31:32;;;;;;;14.77;3.30;;;6.70;99.90;;;;;;4973204;28;20296;-81
2021/04/02 08:33:58;;;;;;;14.27;3.13;;;6.70;99.90;;;;;;4975555;28;20182;-83
2021/04/02 08:36:26;;;;;;;15.10;3.33;;;6.70;99.90;;;;;;4958501;28;20783;-81
2021/04/02 08:38:53;;;;;;;9.00;2.80;;;6.70;99.90;;;;;;4957980;28;20206;-82
2021/04/02 08:41:21;;;;;;;13.47;3.37;;;6.80;99.90;;;;;;4958397;28;20796;-80
2021/04/02 08:43:47;;;;;;;7.23;2.50;;;6.90;99.90;;;;;;4957911;28;20201;-80
2021/04/02 08:46:14;;;;;;;8.23;2.20;;;6.90;99.90;;;;;;4957260;28;20284;-80
2021/04/02 08:48:40;;;;;;;10.47;2.50;;;7.00;99.90;;;;;;4958128;28;20762;-80
2021/04/02 08:51:05;;;;;;;11.07;2.53;;;7.00;99.90;;;;;;4958092;28;20286;-79
2021/04/02 08:53:41;;;;;;;12.73;2.60;;;7.20;99.90;;;;;;4957814;28;20559;-81
2021/04/02 08:56:07;;;;;;;11.10;2.13;;;7.20;99.90;;;;;;4970031;28;20192;-80
2021/04/02 08:58:34;;;;;;;14.93;2.27;;;7.00;99.90;;;;;;4958428;28;20289;-81
2021/04/02 09:01:00;;;;;;;13.27;3.07;;;7.00;99.90;;;;;;4960004;28;20194;-80
2021/04/02 09:03:25;;;;;;;11.73;2.47;;;7.10;99.90;;;;;;4957777;28;20210;-81
2021/04/02 09:05:51;;;;;;;12.37;2.17;;;7.10;99.90;;;;;;4957380;28;20221;-81
2021/04/02 09:08:20;;;;;;;9.37;2.27;;;7.10;99.90;;;;;;4952202;29;20183;-81
2021/04/02 09:10:47;;;;;;;9.80;2.50;;;7.10;99.90;;;;;;4954322;28;20284;-80
2021/04/02 09:13:12;;;;;;;8.83;1.90;;;7.10;99.90;;;;;;4974718;28;20179;-79
2021/04/02 09:15:38;;;;;;;11.13;2.50;;;7.00;99.90;;;;;;4958196;28;20555;-80
2021/04/02 09:18:27;;;;;;;15.57;2.80;;;7.00;99.90;;;;;;4947563;28;20218;-81
2021/04/02 09:20:53;;;;;;;13.03;2.80;;;7.20;99.90;;;;;;4943800;29;20182;-81
2021/04/02 09:23:19;;;;;;;11.10;2.07;;;7.20;99.90;;;;;;4956928;28;20755;-80
2021/04/02 09:25:48;;;;;;;13.80;2.57;;;7.30;99.90;;;;;;4969177;28;20808;-81
2021/04/02 09:28:14;;;;;;;9.37;2.23;;;7.30;99.90;;;;;;4963713;28;20227;-81
2021/04/02 09:30:39;;;;;;;10.97;2.20;;;7.20;99.90;;;;;;4976492;28;20181;-81
2021/04/02 09:33:06;;;;;;;10.50;2.30;;;7.40;99.90;;;;;;4966466;28;20261;-80
2021/04/02 09:35:32;;;;;;;11.63;2.33;;;7.60;99.90;;;;;;4966917;28;20296;-81
2021/04/02 09:37:58;;;;;;;7.43;1.60;;;7.60;99.90;;;;;;4971646;28;20228;-79
2021/04/02 09:40:28;;;;;;;9.83;1.90;;;7.70;99.90;;;;;;4957027;28;20288;-81
2021/04/02 09:42:54;;;;;;;8.47;1.60;;;7.80;99.90;;;;;;4963191;28;20239;-80
2021/04/02 09:45:20;;;;;;;11.23;2.10;;;7.80;99.90;;;;;;4967901;28;20179;-81
2021/04/02 09:47:48;;;;;;;14.17;3.33;;;7.90;99.90;;;;;;4952608;28;20202;-82
2021/04/02 09:50:16;;;;;;;8.43;1.83;;;8.10;99.90;;;;;;4950274;29;20203;-82
2021/04/02 09:52:43;;;;;;;8.97;2.10;;;8.10;99.90;;;;;;4946357;29;20211;-82
2021/04/02 09:55:10;;;;;;;8.27;1.67;;;8.20;99.90;;;;;;4938415;28;20191;-82
2021/04/02 09:57:36;;;;;;;11.40;2.20;;;8.20;99.90;;;;;;4938065;29;20672;-81
2021/04/02 10:00:04;;;;;;;8.27;1.67;;;8.30;99.90;;;;;;4942428;28;20206;-80
2021/04/02 10:02:35;;;;;;;12.17;1.73;;;8.60;99.90;;;;;;4962030;28;20238;-81
2021/04/02 10:05:01;;;;;;;8.67;2.00;;;8.80;99.90;;;;;;4963670;28;20182;-80
2021/04/02 10:07:27;;;;;;;10.47;2.70;;;8.90;99.90;;;;;;4954046;28;20270;-80
2021/04/02 10:09:52;;;;;;;7.63;2.40;;;9.20;99.90;;;;;;4950809;28;20309;-82
2021/04/02 10:12:19;;;;;;;9.53;1.90;;;9.50;99.90;;;;;;4950269;28;20722;-82
2021/04/02 10:14:44;;;;;;;12.07;1.97;;;9.20;99.90;;;;;;4955448;28;20182;-82
2021/04/02 10:17:11;;;;;;;8.90;1.90;;;9.00;99.90;;;;;;4970388;28;20187;-81
2021/04/02 10:19:38;;;;;;;7.87;1.73;;;9.00;99.90;;;;;;4956940;28;20198;-81
2021/04/02 10:22:05;;;;;;;7.13;1.73;;;9.20;99.90;;;;;;4957569;28;20186;-83
2021/04/02 10:24:31;;;;;;;8.70;2.40;;;9.30;99.90;;;;;;4956748;28;20194;-82
2021/04/02 10:26:58;;;;;;;12.03;2.60;;;9.10;99.90;;;;;;4955603;28;20202;-82
2021/04/02 10:29:25;;;;;;;12.55;2.25;;;9.10;99.90;;;;;;4952286;28;20504;-82
2021/04/02 10:31:50;;;;;;;13.03;2.03;;;9.00;99.90;;;;;;4969874;28;20210;-81
2021/04/02 10:34:16;;;;;;;11.23;1.53;;;9.00;99.90;;;;;;4955656;28;20181;-81
2021/04/02 10:36:41;;;;;;;10.00;1.63;;;8.90;99.90;;;;;;4955413;28;20285;-81
2021/04/02 10:39:07;;;;;;;10.47;2.40;;;9.00;99.90;;;;;;4955354;28;20622;-80
2021/04/02 10:41:37;;;;;;;9.00;2.07;;;9.20;99.90;;;;;;4956556;28;20186;-81
2021/04/02 10:44:02;;;;;;;10.23;1.83;;;9.30;99.90;;;;;;4951985;28;20209;-82
2021/04/02 10:46:28;;;;;;;8.00;1.60;;;9.20;99.90;;;;;;4954027;28;20216;-82
2021/04/02 10:48:53;;;;;;;13.27;2.27;;;9.30;99.90;;;;;;4963547;28;20772;-81
2021/04/02 10:51:25;;;;;;;16.60;2.40;;;9.40;99.90;;;;;;4971968;28;20202;-80
2021/04/02 10:53:52;;;;;;;7.80;1.50;;;9.70;99.90;;;;;;4947291;28;20182;-82
2021/04/02 10:56:17;;;;;;;13.20;2.00;;;9.90;99.90;;;;;;4957689;28;20181;-81
2021/04/02 10:58:43;;;;;;;10.77;2.00;;;9.50;99.90;;;;;;4950244;28;20266;-82
2021/04/02 11:01:11;;;;;;;6.37;1.33;;;9.50;99.90;;;;;;4937378;29;20262;-81
2021/04/02 11:03:37;;;;;;;7.27;1.60;;;9.30;99.90;;;;;;4954492;29;20171;-81
2021/04/02 11:06:02;;;;;;;7.13;1.50;;;9.40;99.90;;;;;;4937492;29;20252;-81
2021/04/02 11:08:28;;;;;;;6.23;1.10;;;9.60;99.90;;;;;;4943818;28;20191;-82
2021/04/02 11:10:53;;;;;;;10.10;1.90;;;9.80;99.90;;;;;;4955982;28;20209;-82
2021/04/02 11:13:19;;;;;;;6.77;1.50;;;9.70;99.90;;;;;;4955204;28;20224;-80
2021/04/02 11:15:44;;;;;;;9.37;1.93;;;9.70;99.90;;;;;;4956047;28;20187;-81
2021/04/02 11:18:10;;;;;;;5.27;1.50;;;9.70;99.90;;;;;;4954216;28;20178;-82
2021/04/02 11:20:36;;;;;;;8.87;1.87;;;9.70;99.90;;;;;;4936763;29;20199;-81
2021/04/02 11:23:01;;;;;;;4.10;1.20;;;9.70;99.90;;;;;;4963525;28;20190;-80
2021/04/02 11:25:27;;;;;;;5.43;1.20;;;9.70;99.90;;;;;;4956101;28;20321;-81
2021/04/02 11:27:53;;;;;;;7.33;1.70;;;9.80;99.90;;;;;;4955200;28;20182;-80
2021/04/02 11:30:20;;;;;;;8.67;1.57;;;9.90;99.90;;;;;;4953757;28;20293;-82
2021/04/02 11:32:47;;;;;;;5.47;1.30;;;9.90;99.90;;;;;;4954794;28;20221;-81
2021/04/02 11:35:13;;;;;;;3.97;1.47;;;9.90;99.90;;;;;;4955643;28;20645;-80
2021/04/02 11:37:39;;;;;;;4.83;1.40;;;9.70;99.90;;;;;;4973110;28;20669;-80
2021/04/02 11:40:07;;;;;;;4.97;1.17;;;9.90;99.90;;;;;;4952867;28;20198;-81
2021/04/02 11:42:33;;;;;;;9.67;1.67;;;9.90;99.90;;;;;;4966913;28;20199;-78
2021/04/02 11:44:58;;;;;;;8.83;1.90;;;9.90;99.90;;;;;;4960527;28;20187;-80
2021/04/02 11:47:24;;;;;;;6.87;1.57;;;9.90;99.90;;;;;;4955100;28;20641;-83
2021/04/02 11:49:49;;;;;;;6.57;1.60;;;9.80;99.90;;;;;;4947487;29;20212;-79
2021/04/02 11:52:15;;;;;;;7.73;1.50;;;10.00;99.90;;;;;;4946193;28;20585;-81
2021/04/02 11:54:41;;;;;;;5.43;1.40;;;10.10;99.90;;;;;;4947312;28;20197;-81
2021/04/02 11:57:07;;;;;;;8.17;1.90;;;10.20;99.90;;;;;;4946581;28;20279;-81
2021/04/02 11:59:33;;;;;;;6.43;1.73;;;10.60;99.90;;;;;;4958489;28;20293;-79
2021/04/02 12:01:58;;;;;;;6.97;1.50;;;10.30;99.90;;;;;;4958022;28;20190;-80
2021/04/02 12:04:25;;;;;;;5.47;1.30;;;10.10;99.90;;;;;;4958249;28;20269;-80
2021/04/02 12:06:50;;;;;;;9.27;1.73;;;10.20;99.90;;;;;;4958716;28;20190;-80
2021/04/02 12:09:16;;;;;;;5.73;1.50;;;10.40;99.90;;;;;;4962889;28;20213;-80
2021/04/02 12:11:42;;;;;;;9.10;1.30;;;10.60;99.90;;;;;;4974043;28;20229;-82
2021/04/02 12:14:10;;;;;;;7.33;1.63;;;10.70;99.90;;;;;;4961613;28;20186;-80
2021/04/02 12:16:39;;;;;;;10.27;1.43;;;10.40;99.90;;;;;;4950542;28;20182;-80
2021/04/02 12:19:06;;;;;;;8.07;1.57;;;10.40;99.90;;;;;;4950979;28;20198;-82
2021/04/02 12:21:34;;;;;;;4.37;1.20;;;10.50;99.90;;;;;;4958721;28;20190;-82
2021/04/02 12:24:02;;;;;;;4.90;1.23;;;10.50;99.90;;;;;;4951195;28;20191;-82
2021/04/02 12:26:28;;;;;;;8.23;1.43;;;10.60;99.90;;;;;;4950068;28;20198;-79
2021/04/02 12:28:54;;;;;;;4.43;1.17;;;10.60;99.90;;;;;;4953848;28;20215;-79
2021/04/02 12:31:19;;;;;;;6.17;1.30;;;10.70;99.90;;;;;;4957976;28;20217;-79
2021/04/02 12:33:45;;;;;;;6.43;1.50;;;10.90;99.90;;;;;;4952916;28;20184;-79
2021/04/02 12:36:11;;;;;;;7.17;1.10;;;10.80;99.90;;;;;;4954428;28;20765;-80
2021/04/02 12:38:37;;;;;;;6.07;1.20;;;10.50;99.90;;;;;;4958221;28;20310;-81
2021/04/02 12:41:03;;;;;;;8.23;2.20;;;10.40;99.90;;;;;;4956210;28;20277;-80
2021/04/02 12:43:30;;;;;;;7.03;1.63;;;10.50;99.90;;;;;;4972728;28;20225;-82
2021/04/02 12:45:55;;;;;;;10.83;2.57;;;10.60;99.90;;;;;;4956963;28;20197;-81
2021/04/02 12:48:24;;;;;;;5.73;1.47;;;10.80;99.90;;;;;;4970681;28;20194;-81
2021/04/02 12:50:50;;;;;;;6.43;1.60;;;11.10;99.90;;;;;;4952740;28;20190;-80
2021/04/02 12:53:15;;;;;;;7.90;1.90;;;11.30;99.90;;;;;;4955986;28;20715;-82
2021/04/02 12:55:41;;;;;;;9.57;1.80;;;10.80;99.90;;;;;;4952232;28;20612;-80